sensor_id;sensor_type;location;lat;lon;timestamp;P1;durP1;ratioP1;P2;durP2;ratioP2
76194;SDS011;64964;48.694;21.206;2023-03-22T00:00:28;11.00;;;7.00;;
76194;SDS011;64964;48.694;21.206;2023-03-22T00:02:54;11.57;;;7.10;;
76194;SDS011;64964;48.694;21.206;2023-03-22T00:05:20;13.38;;;6.50;;
76194;SDS011;64964;48.694;21.206;2023-03-22T00:07:45;12.03;;;5.93;;
76194;SDS011;64964;48.694;21.206;2023-03-22T00:10:14;11.25;;;6.55;;
76194;SDS011;64964;48.694;21.206;2023-03-22T00:12:40;11.27;;;6.33;;
76194;SDS011;64964;48.694;21.206;2023-03-22T00:15:05;11.02;;;6.47;;
76194;SDS011;64964;48.694;21.206;2023-03-22T00:17:31;11.57;;;6.40;;
76194;SDS011;64964;48.694;21.206;2023-03-22T00:19:56;11.93;;;6.40;;
76194;SDS011;64964;48.694;21.206;2023-03-22T00:22:22;12.27;;;6.93;;
76194;SDS011;64964;48.694;21.206;2023-03-22T00:24:48;10.75;;;6.60;;
76194;SDS011;64964;48.694;21.206;2023-03-22T00:27:14;11.57;;;6.43;;
76194;SDS011;64964;48.694;21.206;2023-03-22T00:29:39;12.00;;;6.37;;
76194;SDS011;64964;48.694;21.206;2023-03-22T00:32:05;10.52;;;6.10;;
76194;SDS011;64964;48.694;21.206;2023-03-22T00:34:31;11.37;;;5.90;;
76194;SDS011;64964;48.694;21.206;2023-03-22T00:36:57;9.68;;;6.10;;
76194;SDS011;64964;48.694;21.206;2023-03-22T00:39:22;11.13;;;6.10;;
76194;SDS011;64964;48.694;21.206;2023-03-22T00:41:47;9.57;;;5.70;;
76194;SDS011;64964;48.694;21.206;2023-03-22T00:44:13;9.03;;;5.47;;
76194;SDS011;64964;48.694;21.206;2023-03-22T00:46:38;8.93;;;4.93;;
76194;SDS011;64964;48.694;21.206;2023-03-22T00:49:03;8.33;;;5.30;;
76194;SDS011;64964;48.694;21.206;2023-03-22T00:51:29;8.35;;;4.78;;
76194;SDS011;64964;48.694;21.206;2023-03-22T00:53:54;9.80;;;5.03;;
76194;SDS011;64964;48.694;21.206;2023-03-22T00:56:20;8.53;;;4.63;;
76194;SDS011;64964;48.694;21.206;2023-03-22T00:58:47;7.88;;;4.32;;
76194;SDS011;64964;48.694;21.206;2023-03-22T01:01:12;7.57;;;4.63;;
76194;SDS011;64964;48.694;21.206;2023-03-22T01:03:38;7.32;;;4.22;;
76194;SDS011;64964;48.694;21.206;2023-03-22T01:06:04;7.72;;;4.85;;
76194;SDS011;64964;48.694;21.206;2023-03-22T01:08:30;5.97;;;4.17;;
76194;SDS011;64964;48.694;21.206;2023-03-22T01:10:57;8.75;;;4.30;;
76194;SDS011;64964;48.694;21.206;2023-03-22T01:13:24;8.15;;;4.32;;
76194;SDS011;64964;48.694;21.206;2023-03-22T01:15:49;7.23;;;4.63;;
76194;SDS011;64964;48.694;21.206;2023-03-22T01:18:15;7.35;;;4.50;;
76194;SDS011;64964;48.694;21.206;2023-03-22T01:20:41;8.10;;;4.83;;
76194;SDS011;64964;48.694;21.206;2023-03-22T01:23:06;6.93;;;4.43;;
76194;SDS011;64964;48.694;21.206;2023-03-22T01:25:31;7.63;;;4.82;;
76194;SDS011;64964;48.694;21.206;2023-03-22T01:27:57;7.67;;;4.53;;
76194;SDS011;64964;48.694;21.206;2023-03-22T01:30:22;7.73;;;5.13;;
76194;SDS011;64964;48.694;21.206;2023-03-22T01:32:48;7.80;;;4.23;;
76194;SDS011;64964;48.694;21.206;2023-03-22T01:35:13;7.65;;;4.53;;
76194;SDS011;64964;48.694;21.206;2023-03-22T01:37:38;7.63;;;4.20;;
76194;SDS011;64964;48.694;21.206;2023-03-22T01:40:04;7.30;;;4.50;;
76194;SDS011;64964;48.694;21.206;2023-03-22T01:42:31;9.23;;;5.18;;
76194;SDS011;64964;48.694;21.206;2023-03-22T01:47:37;9.07;;;5.00;;
76194;SDS011;64964;48.694;21.206;2023-03-22T01:50:05;7.40;;;4.63;;
76194;SDS011;64964;48.694;21.206;2023-03-22T01:52:32;8.50;;;4.93;;
76194;SDS011;64964;48.694;21.206;2023-03-22T01:54:58;8.37;;;4.80;;
76194;SDS011;64964;48.694;21.206;2023-03-22T01:57:23;9.15;;;5.10;;
76194;SDS011;64964;48.694;21.206;2023-03-22T01:59:49;8.83;;;5.17;;
76194;SDS011;64964;48.694;21.206;2023-03-22T02:02:15;7.80;;;4.63;;
76194;SDS011;64964;48.694;21.206;2023-03-22T02:04:43;9.67;;;5.67;;
76194;SDS011;64964;48.694;21.206;2023-03-22T02:07:11;9.65;;;5.63;;
76194;SDS011;64964;48.694;21.206;2023-03-22T02:09:39;9.93;;;5.35;;
76194;SDS011;64964;48.694;21.206;2023-03-22T02:28:07;8.32;;;4.70;;
76194;SDS011;64964;48.694;21.206;2023-03-22T02:39:14;9.13;;;5.00;;
76194;SDS011;64964;48.694;21.206;2023-03-22T02:44:15;7.83;;;4.33;;
76194;SDS011;64964;48.694;21.206;2023-03-22T02:47:04;7.80;;;4.60;;
76194;SDS011;64964;48.694;21.206;2023-03-22T02:49:41;7.32;;;4.50;;
76194;SDS011;64964;48.694;21.206;2023-03-22T02:58:13;5.70;;;3.47;;
76194;SDS011;64964;48.694;21.206;2023-03-22T03:00:43;7.53;;;4.40;;
76194;SDS011;64964;48.694;21.206;2023-03-22T03:03:11;7.70;;;4.38;;
76194;SDS011;64964;48.694;21.206;2023-03-22T03:05:42;9.48;;;4.50;;
76194;SDS011;64964;48.694;21.206;2023-03-22T03:08:11;7.47;;;4.13;;
76194;SDS011;64964;48.694;21.206;2023-03-22T03:10:39;8.00;;;4.63;;
76194;SDS011;64964;48.694;21.206;2023-03-22T03:13:05;7.97;;;4.45;;
76194;SDS011;64964;48.694;21.206;2023-03-22T03:15:35;8.38;;;4.43;;
76194;SDS011;64964;48.694;21.206;2023-03-22T03:18:12;7.78;;;4.80;;
76194;SDS011;64964;48.694;21.206;2023-03-22T03:20:46;9.10;;;4.70;;
76194;SDS011;64964;48.694;21.206;2023-03-22T03:23:27;7.03;;;3.97;;
76194;SDS011;64964;48.694;21.206;2023-03-22T03:26:07;7.80;;;4.50;;
76194;SDS011;64964;48.694;21.206;2023-03-22T03:28:46;8.50;;;4.80;;
76194;SDS011;64964;48.694;21.206;2023-03-22T03:33:54;9.00;;;4.87;;
76194;SDS011;64964;48.694;21.206;2023-03-22T03:36:26;8.60;;;4.60;;
76194;SDS011;64964;48.694;21.206;2023-03-22T03:38:53;7.30;;;4.07;;
76194;SDS011;64964;48.694;21.206;2023-03-22T03:41:22;8.37;;;4.97;;
76194;SDS011;64964;48.694;21.206;2023-03-22T03:43:51;8.02;;;4.47;;
76194;SDS011;64964;48.694;21.206;2023-03-22T03:46:17;8.68;;;4.45;;
76194;SDS011;64964;48.694;21.206;2023-03-22T03:48:44;10.03;;;5.03;;
76194;SDS011;64964;48.694;21.206;2023-03-22T03:51:13;8.07;;;4.22;;
76194;SDS011;64964;48.694;21.206;2023-03-22T03:53:38;7.82;;;4.78;;
76194;SDS011;64964;48.694;21.206;2023-03-22T03:56:04;8.80;;;4.90;;
76194;SDS011;64964;48.694;21.206;2023-03-22T03:58:30;8.45;;;4.28;;
76194;SDS011;64964;48.694;21.206;2023-03-22T04:00:55;8.37;;;4.73;;
76194;SDS011;64964;48.694;21.206;2023-03-22T04:03:20;5.93;;;4.00;;
76194;SDS011;64964;48.694;21.206;2023-03-22T04:05:46;8.27;;;4.40;;
76194;SDS011;64964;48.694;21.206;2023-03-22T04:08:11;6.40;;;4.20;;
76194;SDS011;64964;48.694;21.206;2023-03-22T04:10:36;8.07;;;4.30;;
76194;SDS011;64964;48.694;21.206;2023-03-22T04:13:02;8.03;;;4.00;;
76194;SDS011;64964;48.694;21.206;2023-03-22T04:15:27;6.20;;;3.90;;
76194;SDS011;64964;48.694;21.206;2023-03-22T04:17:53;7.73;;;4.40;;
76194;SDS011;64964;48.694;21.206;2023-03-22T04:20:18;7.00;;;4.00;;
76194;SDS011;64964;48.694;21.206;2023-03-22T04:22:45;6.75;;;4.07;;
76194;SDS011;64964;48.694;21.206;2023-03-22T04:25:12;6.32;;;3.97;;
76194;SDS011;64964;48.694;21.206;2023-03-22T04:27:42;8.57;;;4.70;;
76194;SDS011;64964;48.694;21.206;2023-03-22T04:30:10;7.28;;;4.00;;
76194;SDS011;64964;48.694;21.206;2023-03-22T04:32:42;9.23;;;4.05;;
76194;SDS011;64964;48.694;21.206;2023-03-22T04:35:09;7.20;;;4.00;;
76194;SDS011;64964;48.694;21.206;2023-03-22T04:37:35;6.60;;;3.88;;
76194;SDS011;64964;48.694;21.206;2023-03-22T04:40:00;7.30;;;4.27;;
76194;SDS011;64964;48.694;21.206;2023-03-22T04:42:25;7.35;;;4.43;;
76194;SDS011;64964;48.694;21.206;2023-03-22T04:44:51;6.53;;;3.90;;
76194;SDS011;64964;48.694;21.206;2023-03-22T04:47:16;6.63;;;3.90;;
76194;SDS011;64964;48.694;21.206;2023-03-22T04:49:42;6.20;;;4.13;;
76194;SDS011;64964;48.694;21.206;2023-03-22T04:52:08;5.93;;;3.80;;
76194;SDS011;64964;48.694;21.206;2023-03-22T04:54:34;9.82;;;4.32;;
76194;SDS011;64964;48.694;21.206;2023-03-22T04:56:59;8.93;;;4.63;;
76194;SDS011;64964;48.694;21.206;2023-03-22T04:59:25;6.87;;;4.33;;
76194;SDS011;64964;48.694;21.206;2023-03-22T05:01:51;7.00;;;4.50;;
76194;SDS011;64964;48.694;21.206;2023-03-22T05:04:17;6.95;;;4.35;;
76194;SDS011;64964;48.694;21.206;2023-03-22T05:06:42;6.05;;;3.95;;
76194;SDS011;64964;48.694;21.206;2023-03-22T05:09:08;6.93;;;4.03;;
76194;SDS011;64964;48.694;21.206;2023-03-22T05:11:34;6.25;;;4.00;;
76194;SDS011;64964;48.694;21.206;2023-03-22T05:14:00;6.30;;;3.97;;
76194;SDS011;64964;48.694;21.206;2023-03-22T05:16:26;6.07;;;3.70;;
76194;SDS011;64964;48.694;21.206;2023-03-22T05:18:52;6.83;;;4.00;;
76194;SDS011;64964;48.694;21.206;2023-03-22T05:21:21;6.60;;;4.00;;
76194;SDS011;64964;48.694;21.206;2023-03-22T05:23:52;6.80;;;4.18;;
76194;SDS011;64964;48.694;21.206;2023-03-22T05:26:23;6.25;;;3.88;;
76194;SDS011;64964;48.694;21.206;2023-03-22T05:28:51;7.72;;;4.15;;
76194;SDS011;64964;48.694;21.206;2023-03-22T05:31:17;7.20;;;4.53;;
76194;SDS011;64964;48.694;21.206;2023-03-22T05:33:46;8.48;;;4.28;;
76194;SDS011;64964;48.694;21.206;2023-03-22T05:36:16;6.85;;;4.10;;
76194;SDS011;64964;48.694;21.206;2023-03-22T05:38:43;7.18;;;4.40;;
76194;SDS011;64964;48.694;21.206;2023-03-22T05:41:09;7.50;;;5.22;;
76194;SDS011;64964;48.694;21.206;2023-03-22T05:43:35;9.53;;;5.47;;
76194;SDS011;64964;48.694;21.206;2023-03-22T05:46:03;8.65;;;5.03;;
76194;SDS011;64964;48.694;21.206;2023-03-22T05:48:32;8.60;;;5.10;;
76194;SDS011;64964;48.694;21.206;2023-03-22T05:50:58;7.70;;;5.23;;
76194;SDS011;64964;48.694;21.206;2023-03-22T05:53:23;7.87;;;4.80;;
76194;SDS011;64964;48.694;21.206;2023-03-22T05:55:49;10.23;;;4.95;;
76194;SDS011;64964;48.694;21.206;2023-03-22T05:58:14;10.03;;;4.93;;
76194;SDS011;64964;48.694;21.206;2023-03-22T06:00:43;8.75;;;5.28;;
76194;SDS011;64964;48.694;21.206;2023-03-22T06:03:09;9.20;;;4.90;;
76194;SDS011;64964;48.694;21.206;2023-03-22T06:05:34;9.43;;;5.30;;
76194;SDS011;64964;48.694;21.206;2023-03-22T06:08:01;7.38;;;4.80;;
76194;SDS011;64964;48.694;21.206;2023-03-22T06:10:27;8.47;;;5.73;;
76194;SDS011;64964;48.694;21.206;2023-03-22T06:12:52;9.60;;;5.68;;
76194;SDS011;64964;48.694;21.206;2023-03-22T06:15:18;8.30;;;5.47;;
76194;SDS011;64964;48.694;21.206;2023-03-22T06:17:44;9.37;;;5.60;;
76194;SDS011;64964;48.694;21.206;2023-03-22T06:20:10;9.82;;;6.13;;
76194;SDS011;64964;48.694;21.206;2023-03-22T06:22:37;8.43;;;5.40;;
76194;SDS011;64964;48.694;21.206;2023-03-22T06:25:03;8.98;;;5.10;;
76194;SDS011;64964;48.694;21.206;2023-03-22T06:27:30;8.43;;;4.70;;
76194;SDS011;64964;48.694;21.206;2023-03-22T06:29:56;7.93;;;4.80;;
76194;SDS011;64964;48.694;21.206;2023-03-22T06:32:21;8.63;;;4.70;;
76194;SDS011;64964;48.694;21.206;2023-03-22T06:34:51;7.63;;;4.63;;
76194;SDS011;64964;48.694;21.206;2023-03-22T06:37:17;6.00;;;4.30;;
76194;SDS011;64964;48.694;21.206;2023-03-22T06:39:42;6.30;;;4.27;;
76194;SDS011;64964;48.694;21.206;2023-03-22T06:42:07;6.73;;;4.70;;
76194;SDS011;64964;48.694;21.206;2023-03-22T06:44:33;6.03;;;4.27;;
76194;SDS011;64964;48.694;21.206;2023-03-22T06:46:59;8.10;;;5.33;;
76194;SDS011;64964;48.694;21.206;2023-03-22T06:49:24;9.85;;;5.45;;
76194;SDS011;64964;48.694;21.206;2023-03-22T06:51:50;9.05;;;6.18;;
76194;SDS011;64964;48.694;21.206;2023-03-22T06:54:15;8.60;;;5.67;;
76194;SDS011;64964;48.694;21.206;2023-03-22T06:56:41;8.63;;;6.00;;
76194;SDS011;64964;48.694;21.206;2023-03-22T06:59:06;7.53;;;6.30;;
76194;SDS011;64964;48.694;21.206;2023-03-22T07:01:32;7.47;;;5.78;;
76194;SDS011;64964;48.694;21.206;2023-03-22T07:03:57;10.00;;;6.10;;
76194;SDS011;64964;48.694;21.206;2023-03-22T07:06:22;9.77;;;6.07;;
76194;SDS011;64964;48.694;21.206;2023-03-22T07:08:48;10.57;;;7.40;;
76194;SDS011;64964;48.694;21.206;2023-03-22T07:11:13;10.07;;;7.43;;
76194;SDS011;64964;48.694;21.206;2023-03-22T07:13:38;10.10;;;8.40;;
76194;SDS011;64964;48.694;21.206;2023-03-22T07:16:04;12.68;;;7.88;;
76194;SDS011;64964;48.694;21.206;2023-03-22T07:18:30;9.53;;;7.47;;
76194;SDS011;64964;48.694;21.206;2023-03-22T07:20:56;9.50;;;6.63;;
76194;SDS011;64964;48.694;21.206;2023-03-22T07:23:21;7.73;;;6.63;;
76194;SDS011;64964;48.694;21.206;2023-03-22T07:25:47;7.57;;;6.30;;
76194;SDS011;64964;48.694;21.206;2023-03-22T07:28:13;8.77;;;6.78;;
76194;SDS011;64964;48.694;21.206;2023-03-22T07:30:39;10.55;;;6.82;;
76194;SDS011;64964;48.694;21.206;2023-03-22T07:33:05;9.30;;;6.37;;
76194;SDS011;64964;48.694;21.206;2023-03-22T07:35:32;9.80;;;6.93;;
76194;SDS011;64964;48.694;21.206;2023-03-22T07:37:57;9.00;;;7.22;;
76194;SDS011;64964;48.694;21.206;2023-03-22T07:40:23;9.77;;;6.57;;
76194;SDS011;64964;48.694;21.206;2023-03-22T07:42:49;9.95;;;6.90;;
76194;SDS011;64964;48.694;21.206;2023-03-22T07:45:15;9.75;;;7.00;;
76194;SDS011;64964;48.694;21.206;2023-03-22T07:47:42;8.93;;;7.27;;
76194;SDS011;64964;48.694;21.206;2023-03-22T07:50:08;9.27;;;7.30;;
76194;SDS011;64964;48.694;21.206;2023-03-22T07:52:36;23.13;;;8.00;;
76194;SDS011;64964;48.694;21.206;2023-03-22T07:55:02;11.70;;;7.88;;
76194;SDS011;64964;48.694;21.206;2023-03-22T07:57:27;9.80;;;8.07;;
76194;SDS011;64964;48.694;21.206;2023-03-22T07:59:53;22.47;;;9.23;;
76194;SDS011;64964;48.694;21.206;2023-03-22T08:02:18;20.80;;;8.57;;
76194;SDS011;64964;48.694;21.206;2023-03-22T08:04:43;11.20;;;7.90;;
76194;SDS011;64964;48.694;21.206;2023-03-22T08:07:09;10.43;;;7.60;;
76194;SDS011;64964;48.694;21.206;2023-03-22T08:09:35;26.48;;;9.23;;
76194;SDS011;64964;48.694;21.206;2023-03-22T08:12:01;21.98;;;9.02;;
76194;SDS011;64964;48.694;21.206;2023-03-22T08:14:27;15.33;;;8.90;;
76194;SDS011;64964;48.694;21.206;2023-03-22T08:16:52;12.97;;;9.23;;
76194;SDS011;64964;48.694;21.206;2023-03-22T08:19:18;13.93;;;9.40;;
76194;SDS011;64964;48.694;21.206;2023-03-22T08:21:43;20.87;;;9.43;;
76194;SDS011;64964;48.694;21.206;2023-03-22T08:24:08;14.80;;;9.30;;
76194;SDS011;64964;48.694;21.206;2023-03-22T08:26:34;16.70;;;9.50;;
76194;SDS011;64964;48.694;21.206;2023-03-22T08:29:00;15.95;;;9.65;;
76194;SDS011;64964;48.694;21.206;2023-03-22T08:31:25;17.07;;;10.00;;
76194;SDS011;64964;48.694;21.206;2023-03-22T08:33:50;20.77;;;9.87;;
76194;SDS011;64964;48.694;21.206;2023-03-22T08:36:17;15.77;;;9.73;;
76194;SDS011;64964;48.694;21.206;2023-03-22T08:38:44;16.10;;;9.70;;
76194;SDS011;64964;48.694;21.206;2023-03-22T08:41:12;16.63;;;10.90;;
76194;SDS011;64964;48.694;21.206;2023-03-22T08:43:39;16.73;;;9.82;;
76194;SDS011;64964;48.694;21.206;2023-03-22T08:46:05;22.87;;;11.07;;
76194;SDS011;64964;48.694;21.206;2023-03-22T08:48:30;19.07;;;10.67;;
76194;SDS011;64964;48.694;21.206;2023-03-22T08:50:56;20.40;;;10.50;;
76194;SDS011;64964;48.694;21.206;2023-03-22T08:53:22;19.40;;;10.85;;
76194;SDS011;64964;48.694;21.206;2023-03-22T08:55:47;20.97;;;10.70;;
76194;SDS011;64964;48.694;21.206;2023-03-22T08:58:13;24.03;;;11.17;;
76194;SDS011;64964;48.694;21.206;2023-03-22T09:00:40;21.08;;;11.63;;
76194;SDS011;64964;48.694;21.206;2023-03-22T09:03:07;25.50;;;12.32;;
76194;SDS011;64964;48.694;21.206;2023-03-22T09:05:33;29.00;;;12.70;;
76194;SDS011;64964;48.694;21.206;2023-03-22T09:07:58;29.95;;;14.00;;
76194;SDS011;64964;48.694;21.206;2023-03-22T09:10:23;29.17;;;13.03;;
76194;SDS011;64964;48.694;21.206;2023-03-22T09:12:49;35.30;;;14.27;;
76194;SDS011;64964;48.694;21.206;2023-03-22T09:15:14;37.53;;;13.93;;
76194;SDS011;64964;48.694;21.206;2023-03-22T09:17:40;13.80;;;8.55;;
76194;SDS011;64964;48.694;21.206;2023-03-22T09:20:06;14.17;;;8.17;;
76194;SDS011;64964;48.694;21.206;2023-03-22T09:22:31;11.10;;;7.47;;
76194;SDS011;64964;48.694;21.206;2023-03-22T09:24:57;10.60;;;7.00;;
76194;SDS011;64964;48.694;21.206;2023-03-22T09:27:22;11.63;;;6.43;;
76194;SDS011;64964;48.694;21.206;2023-03-22T09:29:48;9.77;;;6.35;;
76194;SDS011;64964;48.694;21.206;2023-03-22T09:32:14;31.03;;;8.07;;
76194;SDS011;64964;48.694;21.206;2023-03-22T09:34:40;9.23;;;6.53;;
76194;SDS011;64964;48.694;21.206;2023-03-22T09:37:06;9.17;;;6.17;;
76194;SDS011;64964;48.694;21.206;2023-03-22T09:39:31;9.70;;;6.30;;
76194;SDS011;64964;48.694;21.206;2023-03-22T09:41:58;9.83;;;6.70;;
76194;SDS011;64964;48.694;21.206;2023-03-22T09:44:32;8.80;;;6.43;;
76194;SDS011;64964;48.694;21.206;2023-03-22T09:47:02;11.23;;;6.50;;
76194;SDS011;64964;48.694;21.206;2023-03-22T09:49:33;10.20;;;6.32;;
76194;SDS011;64964;48.694;21.206;2023-03-22T09:52:05;8.35;;;5.45;;
76194;SDS011;64964;48.694;21.206;2023-03-22T09:54:39;12.60;;;6.90;;
76194;SDS011;64964;48.694;21.206;2023-03-22T10:05:37;6.32;;;4.75;;
76194;SDS011;64964;48.694;21.206;2023-03-22T10:14:30;10.57;;;5.03;;
76194;SDS011;64964;48.694;21.206;2023-03-22T10:17:00;8.50;;;5.22;;
76194;SDS011;64964;48.694;21.206;2023-03-22T10:19:34;8.40;;;5.20;;
76194;SDS011;64964;48.694;21.206;2023-03-22T10:22:07;8.67;;;4.70;;
76194;SDS011;64964;48.694;21.206;2023-03-22T10:24:39;7.63;;;5.00;;
76194;SDS011;64964;48.694;21.206;2023-03-22T10:27:16;13.85;;;5.85;;
76194;SDS011;64964;48.694;21.206;2023-03-22T10:29:49;11.45;;;5.40;;
76194;SDS011;64964;48.694;21.206;2023-03-22T10:32:21;6.88;;;4.93;;
76194;SDS011;64964;48.694;21.206;2023-03-22T10:34:53;6.90;;;4.78;;
76194;SDS011;64964;48.694;21.206;2023-03-22T10:37:19;7.37;;;4.43;;
76194;SDS011;64964;48.694;21.206;2023-03-22T10:39:54;4.07;;;3.35;;
76194;SDS011;64964;48.694;21.206;2023-03-22T10:42:23;4.55;;;3.53;;
76194;SDS011;64964;48.694;21.206;2023-03-22T10:44:56;4.50;;;3.50;;
76194;SDS011;64964;48.694;21.206;2023-03-22T10:47:31;4.03;;;3.13;;
76194;SDS011;64964;48.694;21.206;2023-03-22T10:50:01;3.78;;;3.10;;
76194;SDS011;64964;48.694;21.206;2023-03-22T10:52:44;18.77;;;3.67;;
76194;SDS011;64964;48.694;21.206;2023-03-22T10:55:15;8.15;;;3.45;;
76194;SDS011;64964;48.694;21.206;2023-03-22T10:57:41;26.33;;;5.83;;
76194;SDS011;64964;48.694;21.206;2023-03-22T11:00:15;5.35;;;3.83;;
76194;SDS011;64964;48.694;21.206;2023-03-22T11:02:51;4.10;;;3.70;;
76194;SDS011;64964;48.694;21.206;2023-03-22T11:05:23;38.50;;;5.60;;
76194;SDS011;64964;48.694;21.206;2023-03-22T11:07:50;22.33;;;4.53;;
76194;SDS011;64964;48.694;21.206;2023-03-22T11:10:18;15.48;;;4.85;;
76194;SDS011;64964;48.694;21.206;2023-03-22T11:12:48;12.35;;;4.90;;
76194;SDS011;64964;48.694;21.206;2023-03-22T11:15:20;6.25;;;4.00;;
76194;SDS011;64964;48.694;21.206;2023-03-22T11:17:49;5.53;;;3.33;;
76194;SDS011;64964;48.694;21.206;2023-03-22T11:20:15;5.80;;;3.88;;
76194;SDS011;64964;48.694;21.206;2023-03-22T11:22:43;5.75;;;3.90;;
76194;SDS011;64964;48.694;21.206;2023-03-22T11:27:51;5.73;;;3.90;;
76194;SDS011;64964;48.694;21.206;2023-03-22T11:30:21;4.70;;;3.67;;
76194;SDS011;64964;48.694;21.206;2023-03-22T11:35:31;8.48;;;3.60;;
76194;SDS011;64964;48.694;21.206;2023-03-22T11:37:59;5.80;;;3.85;;
76194;SDS011;64964;48.694;21.206;2023-03-22T11:40:29;7.25;;;4.05;;
76194;SDS011;64964;48.694;21.206;2023-03-22T11:45:35;6.68;;;3.78;;
76194;SDS011;64964;48.694;21.206;2023-03-22T11:48:06;7.88;;;4.00;;
76194;SDS011;64964;48.694;21.206;2023-03-22T11:50:37;8.88;;;3.63;;
76194;SDS011;64964;48.694;21.206;2023-03-22T11:53:06;9.68;;;4.10;;
76194;SDS011;64964;48.694;21.206;2023-03-22T11:55:36;4.13;;;3.37;;
76194;SDS011;64964;48.694;21.206;2023-03-22T11:58:02;20.13;;;4.80;;
76194;SDS011;64964;48.694;21.206;2023-03-22T12:00:28;5.55;;;3.63;;
76194;SDS011;64964;48.694;21.206;2023-03-22T12:05:46;10.37;;;3.40;;
76194;SDS011;64964;48.694;21.206;2023-03-22T12:11:04;4.90;;;3.20;;
76194;SDS011;64964;48.694;21.206;2023-03-22T12:13:45;6.88;;;3.60;;
76194;SDS011;64964;48.694;21.206;2023-03-22T12:16:16;4.68;;;3.40;;
76194;SDS011;64964;48.694;21.206;2023-03-22T12:21:21;26.65;;;4.78;;
76194;SDS011;64964;48.694;21.206;2023-03-22T12:23:47;4.78;;;3.10;;
76194;SDS011;64964;48.694;21.206;2023-03-22T12:28:55;3.55;;;3.03;;
76194;SDS011;64964;48.694;21.206;2023-03-22T12:34:18;5.83;;;3.13;;
76194;SDS011;64964;48.694;21.206;2023-03-22T12:37:10;4.65;;;2.90;;
76194;SDS011;64964;48.694;21.206;2023-03-22T12:45:14;4.43;;;2.85;;
76194;SDS011;64964;48.694;21.206;2023-03-22T12:47:46;3.67;;;3.07;;
76194;SDS011;64964;48.694;21.206;2023-03-22T12:50:26;4.07;;;2.90;;
76194;SDS011;64964;48.694;21.206;2023-03-22T12:52:58;7.40;;;3.13;;
76194;SDS011;64964;48.694;21.206;2023-03-22T12:57:56;5.28;;;3.40;;
76194;SDS011;64964;48.694;21.206;2023-03-22T13:00:32;4.13;;;3.13;;
76194;SDS011;64964;48.694;21.206;2023-03-22T13:03:05;4.00;;;3.10;;
76194;SDS011;64964;48.694;21.206;2023-03-22T13:05:43;3.58;;;2.75;;
76194;SDS011;64964;48.694;21.206;2023-03-22T13:08:10;3.55;;;2.78;;
76194;SDS011;64964;48.694;21.206;2023-03-22T13:10:45;13.93;;;3.60;;
76194;SDS011;64964;48.694;21.206;2023-03-22T13:18:29;4.65;;;2.95;;
76194;SDS011;64964;48.694;21.206;2023-03-22T13:21:17;5.07;;;3.00;;
76194;SDS011;64964;48.694;21.206;2023-03-22T13:23:54;5.43;;;3.30;;
76194;SDS011;64964;48.694;21.206;2023-03-22T13:26:37;4.97;;;3.10;;
76194;SDS011;64964;48.694;21.206;2023-03-22T13:29:19;4.10;;;3.00;;
76194;SDS011;64964;48.694;21.206;2023-03-22T13:31:58;4.13;;;3.15;;
76194;SDS011;64964;48.694;21.206;2023-03-22T13:37:02;3.70;;;2.95;;
76194;SDS011;64964;48.694;21.206;2023-03-22T13:39:33;4.28;;;3.10;;
76194;SDS011;64964;48.694;21.206;2023-03-22T13:42:34;6.33;;;3.47;;
76194;SDS011;64964;48.694;21.206;2023-03-22T13:45:04;6.43;;;3.20;;
76194;SDS011;64964;48.694;21.206;2023-03-22T13:47:42;4.30;;;3.35;;
76194;SDS011;64964;48.694;21.206;2023-03-22T13:50:10;3.05;;;2.67;;
76194;SDS011;64964;48.694;21.206;2023-03-22T13:52:38;4.45;;;3.00;;
76194;SDS011;64964;48.694;21.206;2023-03-22T13:55:13;3.63;;;2.90;;
76194;SDS011;64964;48.694;21.206;2023-03-22T13:57:59;3.67;;;2.80;;
76194;SDS011;64964;48.694;21.206;2023-03-22T14:02:54;3.55;;;2.67;;
76194;SDS011;64964;48.694;21.206;2023-03-22T14:05:41;3.33;;;2.83;;
76194;SDS011;64964;48.694;21.206;2023-03-22T14:08:15;5.17;;;3.33;;
76194;SDS011;64964;48.694;21.206;2023-03-22T14:10:47;3.97;;;3.10;;
76194;SDS011;64964;48.694;21.206;2023-03-22T14:16:05;11.20;;;3.25;;
76194;SDS011;64964;48.694;21.206;2023-03-22T14:18:34;5.10;;;3.40;;
76194;SDS011;64964;48.694;21.206;2023-03-22T14:21:07;4.30;;;3.20;;
76194;SDS011;64964;48.694;21.206;2023-03-22T14:23:38;3.95;;;3.20;;
76194;SDS011;64964;48.694;21.206;2023-03-22T14:26:17;6.13;;;3.30;;
76194;SDS011;64964;48.694;21.206;2023-03-22T14:28:46;4.88;;;3.20;;
76194;SDS011;64964;48.694;21.206;2023-03-22T14:31:16;4.50;;;2.90;;
76194;SDS011;64964;48.694;21.206;2023-03-22T14:34:03;6.90;;;3.40;;
76194;SDS011;64964;48.694;21.206;2023-03-22T14:36:36;3.65;;;3.08;;
76194;SDS011;64964;48.694;21.206;2023-03-22T14:39:10;3.95;;;3.10;;
76194;SDS011;64964;48.694;21.206;2023-03-22T14:44:47;4.67;;;3.00;;
76194;SDS011;64964;48.694;21.206;2023-03-22T14:47:20;3.83;;;2.70;;
76194;SDS011;64964;48.694;21.206;2023-03-22T14:49:53;6.65;;;3.10;;
76194;SDS011;64964;48.694;21.206;2023-03-22T14:52:24;4.45;;;2.80;;
76194;SDS011;64964;48.694;21.206;2023-03-22T14:55:12;4.00;;;2.85;;
76194;SDS011;64964;48.694;21.206;2023-03-22T14:57:47;4.93;;;2.90;;
76194;SDS011;64964;48.694;21.206;2023-03-22T15:00:15;5.45;;;2.90;;
76194;SDS011;64964;48.694;21.206;2023-03-22T15:02:47;4.95;;;3.22;;
76194;SDS011;64964;48.694;21.206;2023-03-22T15:05:19;6.65;;;3.17;;
76194;SDS011;64964;48.694;21.206;2023-03-22T15:07:50;7.55;;;3.28;;
76194;SDS011;64964;48.694;21.206;2023-03-22T15:10:29;7.43;;;3.70;;
76194;SDS011;64964;48.694;21.206;2023-03-22T15:12:56;7.88;;;3.75;;
76194;SDS011;64964;48.694;21.206;2023-03-22T15:15:25;7.88;;;3.85;;
76194;SDS011;64964;48.694;21.206;2023-03-22T15:17:54;6.78;;;3.67;;
76194;SDS011;64964;48.694;21.206;2023-03-22T15:20:22;7.50;;;3.75;;
76194;SDS011;64964;48.694;21.206;2023-03-22T15:22:51;6.77;;;3.13;;
76194;SDS011;64964;48.694;21.206;2023-03-22T15:25:30;6.05;;;3.42;;
76194;SDS011;64964;48.694;21.206;2023-03-22T15:27:58;7.03;;;3.15;;
76194;SDS011;64964;48.694;21.206;2023-03-22T15:30:25;11.25;;;3.38;;
76194;SDS011;64964;48.694;21.206;2023-03-22T15:32:51;10.88;;;3.40;;
76194;SDS011;64964;48.694;21.206;2023-03-22T15:35:17;5.03;;;3.20;;
76194;SDS011;64964;48.694;21.206;2023-03-22T15:37:46;5.00;;;3.70;;
76194;SDS011;64964;48.694;21.206;2023-03-22T15:43:21;4.40;;;3.17;;
76194;SDS011;64964;48.694;21.206;2023-03-22T15:48:42;4.32;;;3.17;;
76194;SDS011;64964;48.694;21.206;2023-03-22T15:51:17;7.32;;;3.10;;
76194;SDS011;64964;48.694;21.206;2023-03-22T15:53:44;7.68;;;3.88;;
76194;SDS011;64964;48.694;21.206;2023-03-22T15:56:28;5.83;;;3.70;;
76194;SDS011;64964;48.694;21.206;2023-03-22T15:58:56;6.57;;;3.33;;
76194;SDS011;64964;48.694;21.206;2023-03-22T16:01:23;4.78;;;3.50;;
76194;SDS011;64964;48.694;21.206;2023-03-22T16:06:21;7.07;;;3.80;;
76194;SDS011;64964;48.694;21.206;2023-03-22T16:08:47;7.57;;;3.50;;
76194;SDS011;64964;48.694;21.206;2023-03-22T16:11:13;6.85;;;3.83;;
76194;SDS011;64964;48.694;21.206;2023-03-22T16:13:41;5.68;;;3.53;;
76194;SDS011;64964;48.694;21.206;2023-03-22T16:16:14;4.87;;;3.60;;
76194;SDS011;64964;48.694;21.206;2023-03-22T16:18:41;6.50;;;3.55;;
76194;SDS011;64964;48.694;21.206;2023-03-22T16:21:11;5.57;;;3.40;;
76194;SDS011;64964;48.694;21.206;2023-03-22T16:23:38;4.85;;;3.47;;
76194;SDS011;64964;48.694;21.206;2023-03-22T16:26:04;5.47;;;3.60;;